Time;durP1;ratioP1;P1;durP2;ratioP2;P2;SDS_P1;SDS_P2;PMS_P1;PMS_P2;Temp;Humidity;BMP_temperature;BMP_pressure;BME280_temperature;BME280_humidity;BME280_pressure;Samples;Min_cycle;Max_cycle;Signal;HPM_P1;HPM_P2
2023/11/04 00:03:23;;;;;;;6.03;3.40;;;6.30;99.90;;;;;;1941378;72;28194;-90
2023/11/04 00:06:12;;;;;;;7.07;3.77;;;6.30;99.90;;;;;;1880557;75;25249;-89
2023/11/04 00:09:00;;;;;;;6.40;2.70;;;6.30;99.90;;;;;;1910119;75;25172;-89
2023/11/04 00:11:48;;;;;;;5.90;3.50;;;6.40;99.90;;;;;;1884968;75;25309;-90
2023/11/04 00:14:37;;;;;;;5.73;3.60;;;6.40;99.90;;;;;;1907274;73;25797;-90
2023/11/04 00:17:26;;;;;;;4.50;3.23;;;6.30;99.90;;;;;;1859038;76;25827;-90
2023/11/04 00:20:16;;;;;;;4.83;3.40;;;6.30;99.90;;;;;;1823375;77;25797;-90
2023/11/04 00:23:04;;;;;;;4.77;3.10;;;6.30;99.90;;;;;;1829362;77;25263;-90
2023/11/04 00:25:53;;;;;;;9.43;3.40;;;6.30;99.90;;;;;;1865155;75;25723;-90
2023/11/04 00:28:42;;;;;;;4.97;3.13;;;6.30;99.90;;;;;;1841902;77;25249;-90
2023/11/04 00:31:31;;;;;;;6.83;3.33;;;6.30;99.90;;;;;;1828248;77;25203;-90
2023/11/04 00:34:19;;;;;;;7.83;3.13;;;6.40;99.90;;;;;;1831286;77;25773;-90
2023/11/04 00:37:08;;;;;;;3.77;2.83;;;6.30;99.90;;;;;;1841780;77;25329;-90
2023/11/04 00:43:11;;;;;;;5.03;3.23;;;6.40;99.90;;;;;;1919142;72;26810;-90
2023/11/04 00:48:44;;;;;;;5.33;3.23;;;6.30;99.90;;;;;;1937841;72;27674;-90
2023/11/04 00:51:32;;;;;;;3.73;2.97;;;6.30;99.90;;;;;;1837439;77;25226;-91
2023/11/04 00:54:21;;;;;;;4.93;3.23;;;6.30;99.90;;;;;;1806269;78;25711;-91
2023/11/04 00:57:10;;;;;;;5.70;3.37;;;6.40;99.90;;;;;;1881124;74;25722;-91
2023/11/04 00:59:59;;;;;;;4.37;3.17;;;6.40;99.90;;;;;;1885674;74;25417;-91
2023/11/04 01:02:47;;;;;;;8.33;3.50;;;6.40;99.90;;;;;;1892476;74;25287;-91
2023/11/04 01:05:36;;;;;;;3.57;3.00;;;6.30;99.90;;;;;;1895283;74;25771;-91
2023/11/04 01:08:25;;;;;;;5.70;3.60;;;6.40;99.90;;;;;;1878872;74;25274;-91
2023/11/04 01:11:13;;;;;;;6.87;3.87;;;6.50;99.90;;;;;;1863044;76;25192;-91
2023/11/04 01:14:02;;;;;;;6.73;4.07;;;6.40;99.90;;;;;;1876048;74;25262;-91
2023/11/04 01:34:04;;;;;;;6.30;4.03;;;6.20;99.90;;;;;;1973791;72;26993;-90
2023/11/04 01:36:53;;;;;;;5.00;3.77;;;6.20;99.90;;;;;;1945379;73;25166;-89
2023/11/04 01:39:41;;;;;;;5.73;3.47;;;6.10;99.90;;;;;;1952443;73;25190;-89
2023/11/04 01:42:30;;;;;;;6.13;3.50;;;6.10;99.90;;;;;;1944003;73;25260;-90
2023/11/04 01:45:18;;;;;;;5.30;3.50;;;6.00;99.90;;;;;;1940009;73;25744;-90
2023/11/04 01:48:09;;;;;;;7.13;3.80;;;6.00;99.90;;;;;;1939534;73;25282;-89
2023/11/04 01:50:58;;;;;;;6.30;3.67;;;5.90;99.90;;;;;;1932877;73;25293;-90
2023/11/04 01:53:48;;;;;;;4.43;3.57;;;5.80;99.90;;;;;;1933591;72;25719;-91
2023/11/04 01:56:39;;;;;;;5.00;3.63;;;5.80;99.90;;;;;;1932148;73;25536;-90
2023/11/04 01:59:29;;;;;;;7.20;3.93;;;5.80;99.90;;;;;;1946537;72;25280;-91
2023/11/04 02:02:19;;;;;;;5.40;3.53;;;5.90;99.90;;;;;;1942690;73;25307;-90
2023/11/04 02:05:09;;;;;;;6.27;3.40;;;5.90;99.90;;;;;;1926298;73;25231;-90
2023/11/04 02:07:59;;;;;;;5.27;3.43;;;5.80;99.90;;;;;;1934714;72;25838;-90
2023/11/04 02:10:48;;;;;;;6.00;3.87;;;5.80;99.90;;;;;;1927204;72;25825;-90
2023/11/04 02:13:37;;;;;;;4.43;3.30;;;5.80;99.90;;;;;;1922423;72;25223;-90
2023/11/04 02:26:28;;;;;;;5.63;4.03;;;5.90;99.90;;;;;;1954143;72;26412;-91
2023/11/04 02:29:17;;;;;;;6.53;3.73;;;6.00;99.90;;;;;;1929331;73;25202;-90
2023/11/04 02:32:06;;;;;;;6.37;3.27;;;6.00;99.90;;;;;;1911053;74;25667;-92
2023/11/04 02:34:55;;;;;;;3.83;3.03;;;6.00;99.90;;;;;;1910834;74;25732;-92
2023/11/04 02:37:44;;;;;;;4.07;2.73;;;5.80;99.90;;;;;;1911010;75;25790;-92
2023/11/04 02:43:18;;;;;;;5.57;2.93;;;5.80;99.90;;;;;;1936204;72;27624;-89
2023/11/04 03:11:45;;;;;;;5.10;3.80;;;5.70;99.90;;;;;;1908661;73;26992;-91
2023/11/04 03:17:24;;;;;;;5.83;3.50;;;5.70;99.90;;;;;;1950918;72;27022;-92
2023/11/04 03:20:13;;;;;;;4.53;2.80;;;5.70;99.90;;;;;;1926458;72;25731;-91
2023/11/04 03:23:02;;;;;;;4.20;3.17;;;5.60;99.90;;;;;;1933840;73;25265;-91
2023/11/04 03:29:42;;;;;;;6.73;3.70;;;5.60;99.90;;;;;;1978702;71;27014;-91
2023/11/04 03:32:31;;;;;;;12.33;3.40;;;5.60;99.90;;;;;;2017230;70;25127;-92
2023/11/04 03:35:20;;;;;;;3.63;2.90;;;5.60;99.90;;;;;;2024389;69;25193;-91
2023/11/04 03:38:08;;;;;;;7.90;3.07;;;5.60;99.90;;;;;;2021950;70;25750;-89
2023/11/04 03:40:57;;;;;;;3.93;2.60;;;5.60;99.90;;;;;;2012372;69;26635;-89
2023/11/04 03:46:31;;;;;;;6.17;3.30;;;5.60;99.90;;;;;;1950819;72;26958;-89
2023/11/04 03:49:20;;;;;;;8.03;3.50;;;5.50;99.90;;;;;;1931102;73;25255;-90
2023/11/04 03:52:09;;;;;;;5.27;3.60;;;5.60;99.90;;;;;;1945857;73;25288;-89
2023/11/04 03:54:57;;;;;;;5.90;3.30;;;5.60;99.90;;;;;;1940906;73;25194;-89
2023/11/04 03:57:45;;;;;;;7.03;3.27;;;5.60;99.90;;;;;;1937489;72;25735;-89
2023/11/04 04:00:34;;;;;;;5.87;3.50;;;5.60;99.90;;;;;;1923317;73;25780;-91
2023/11/04 04:03:23;;;;;;;3.93;3.13;;;5.60;99.90;;;;;;1916594;72;25251;-91
2023/11/04 04:06:12;;;;;;;6.67;3.30;;;5.50;99.90;;;;;;1886171;75;25356;-91
2023/11/04 04:09:02;;;;;;;3.97;3.10;;;5.40;99.90;;;;;;1907900;75;25254;-90
2023/11/04 04:11:51;;;;;;;4.07;2.87;;;5.40;99.90;;;;;;1890669;75;25214;-90
2023/11/04 04:14:44;;;;;;;5.07;2.77;;;5.30;99.90;;;;;;1851534;76;25685;-90
2023/11/04 04:17:30;;;;;;;4.80;2.90;;;5.30;99.90;;;;;;1929043;73;25240;-89
2023/11/04 04:20:21;;;;;;;4.43;2.97;;;5.20;99.90;;;;;;1934704;73;25755;-90
2023/11/04 04:23:09;;;;;;;3.77;2.90;;;5.20;99.90;;;;;;1883066;75;25271;-90
2023/11/04 04:25:58;;;;;;;3.60;2.50;;;5.20;99.90;;;;;;1870739;75;25655;-90
2023/11/04 04:31:32;;;;;;;2.33;2.13;;;5.10;99.90;;;;;;1944715;72;27381;-89
2023/11/04 04:34:21;;;;;;;3.37;2.20;;;5.00;99.90;;;;;;1924354;73;25735;-91
2023/11/04 04:37:09;;;;;;;2.20;2.00;;;5.00;99.90;;;;;;1931945;73;25242;-89
2023/11/04 04:39:58;;;;;;;2.20;2.00;;;5.10;99.90;;;;;;1885383;75;25171;-89
2023/11/04 04:42:47;;;;;;;2.43;2.20;;;5.10;99.90;;;;;;1880334;74;25206;-89
2023/11/04 04:45:38;;;;;;;2.20;2.00;;;5.10;99.90;;;;;;1869214;75;25288;-89
2023/11/04 04:48:25;;;;;;;2.30;1.90;;;5.00;99.90;;;;;;1860184;75;25335;-90
2023/11/04 04:51:16;;;;;;;2.87;1.90;;;5.00;99.90;;;;;;1867251;76;25223;-91
2023/11/04 04:54:06;;;;;;;2.17;1.80;;;5.00;99.90;;;;;;1863681;76;25307;-91
2023/11/04 04:56:54;;;;;;;1.97;1.77;;;5.10;99.90;;;;;;1865996;75;25268;-91
2023/11/04 04:59:43;;;;;;;2.00;1.73;;;5.00;99.90;;;;;;1849075;76;25233;-90
2023/11/04 05:02:33;;;;;;;3.33;2.10;;;5.10;99.90;;;;;;1844547;77;25221;-91
2023/11/04 05:05:22;;;;;;;3.23;2.10;;;5.00;99.90;;;;;;1870347;75;25292;-91
2023/11/04 05:08:11;;;;;;;2.40;2.20;;;5.00;99.90;;;;;;1868227;76;25223;-90
2023/11/04 05:11:00;;;;;;;2.67;2.10;;;4.90;99.90;;;;;;1872963;75;25262;-90
2023/11/04 05:13:49;;;;;;;2.43;2.23;;;5.00;99.90;;;;;;1849410;76;25218;-90
2023/11/04 05:32:31;;;;;;;2.37;2.10;;;5.00;99.90;;;;;;2021912;71;27459;-89
2023/11/04 05:35:20;;;;;;;2.20;2.00;;;4.90;99.90;;;;;;1952124;72;25229;-91
2023/11/04 05:38:09;;;;;;;4.23;2.20;;;4.90;99.90;;;;;;1964551;71;25255;-91
2023/11/04 05:40:57;;;;;;;2.90;2.40;;;4.90;99.90;;;;;;1967287;72;25331;-91
2023/11/04 05:46:32;;;;;;;2.90;2.03;;;4.80;99.90;;;;;;1971690;71;27333;-89
2023/11/04 05:49:21;;;;;;;2.83;2.40;;;4.80;99.90;;;;;;1925356;72;25319;-91
2023/11/04 05:52:09;;;;;;;2.90;2.50;;;4.80;99.90;;;;;;1941599;72;25697;-89
2023/11/04 05:54:57;;;;;;;2.60;2.00;;;4.80;99.90;;;;;;1929457;72;25232;-90
2023/11/04 05:57:46;;;;;;;3.20;2.40;;;4.70;99.90;;;;;;1955622;72;25231;-89
2023/11/04 06:00:36;;;;;;;2.30;2.10;;;4.70;99.90;;;;;;1925446;72;25250;-89
2023/11/04 06:03:24;;;;;;;2.77;2.00;;;4.70;99.90;;;;;;1929531;73;25219;-91
2023/11/04 06:06:20;;;;;;;3.50;2.07;;;4.60;99.90;;;;;;1941540;73;25241;-91
2023/11/04 06:09:11;;;;;;;2.60;2.27;;;4.60;99.90;;;;;;1940001;73;25233;-89
2023/11/04 06:20:07;;;;;;;3.07;2.70;;;4.70;99.90;;;;;;1954764;71;26436;-91
2023/11/04 06:22:56;;;;;;;2.67;2.13;;;4.60;99.90;;;;;;1990606;71;25293;-89
2023/11/04 06:25:45;;;;;;;3.03;2.70;;;4.50;99.90;;;;;;1946029;71;25219;-91
2023/11/04 06:28:34;;;;;;;2.50;2.30;;;4.60;99.90;;;;;;1989170;70;25531;-89
2023/11/04 06:31:23;;;;;;;6.07;2.47;;;4.50;99.90;;;;;;1969831;71;25285;-89
2023/11/04 06:34:12;;;;;;;3.00;2.03;;;4.60;99.90;;;;;;1933676;72;25239;-89
2023/11/04 06:37:03;;;;;;;2.23;2.03;;;4.50;99.90;;;;;;1981842;70;25233;-91
2023/11/04 06:39:51;;;;;;;3.93;2.30;;;4.50;99.90;;;;;;1993847;70;25715;-91
2023/11/04 06:42:40;;;;;;;2.97;2.27;;;4.50;99.90;;;;;;1981587;70;25249;-91
2023/11/04 06:45:29;;;;;;;1.73;1.63;;;4.40;99.90;;;;;;1965414;71;25213;-91
2023/11/04 06:48:18;;;;;;;2.17;1.90;;;4.30;99.90;;;;;;1971732;71;25200;-91
2023/11/04 06:51:07;;;;;;;3.67;2.17;;;4.30;99.90;;;;;;1919105;73;25665;-89
2023/11/04 06:53:57;;;;;;;3.77;2.67;;;4.40;99.90;;;;;;1918446;72;25747;-91
2023/11/04 06:56:45;;;;;;;3.53;2.30;;;4.40;99.90;;;;;;1944083;72;25227;-91
2023/11/04 06:59:36;;;;;;;1.90;1.77;;;4.40;99.90;;;;;;1943323;72;25283;-91
2023/11/04 07:02:24;;;;;;;2.07;1.70;;;4.50;99.90;;;;;;1926952;73;25313;-91
2023/11/04 07:08:56;;;;;;;1.93;1.77;;;4.50;99.90;;;;;;1978945;71;27107;-91
2023/11/04 07:11:45;;;;;;;2.37;1.80;;;4.50;99.90;;;;;;1954439;72;25170;-91
2023/11/04 07:14:33;;;;;;;2.53;1.77;;;4.40;99.90;;;;;;2047779;69;25190;-89
2023/11/04 07:20:15;;;;;;;1.97;1.80;;;4.30;99.90;;;;;;1947526;72;27025;-89
2023/11/04 07:25:44;;;;;;;1.83;1.60;;;4.30;99.90;;;;;;1947911;72;26953;-89
2023/11/04 07:28:35;;;;;;;1.50;1.40;;;4.30;99.90;;;;;;1918253;73;25763;-89
2023/11/04 07:31:24;;;;;;;1.60;1.43;;;4.20;99.90;;;;;;1906300;73;25279;-89
2023/11/04 07:34:13;;;;;;;2.03;1.50;;;4.30;99.90;;;;;;1888283;74;25304;-89
2023/11/04 07:37:02;;;;;;;1.50;1.40;;;4.20;99.90;;;;;;1892172;75;25174;-91
2023/11/04 07:39:51;;;;;;;5.77;1.83;;;4.30;99.90;;;;;;1921207;73;25227;-91
2023/11/04 07:42:41;;;;;;;0.83;0.83;;;4.20;99.90;;;;;;1878630;75;25327;-89
2023/11/04 07:45:29;;;;;;;1.47;1.37;;;4.20;99.90;;;;;;1852590;76;25208;-91
2023/11/04 07:48:19;;;;;;;2.17;1.37;;;4.30;99.90;;;;;;1859021;76;25307;-89
2023/11/04 07:51:08;;;;;;;1.60;1.50;;;4.30;99.90;;;;;;1848734;76;25184;-89
2023/11/04 07:53:57;;;;;;;2.07;1.50;;;4.30;99.90;;;;;;1830708;76;25689;-91
2023/11/04 07:56:46;;;;;;;2.17;1.60;;;4.30;99.90;;;;;;1851265;76;25267;-91
2023/11/04 07:59:36;;;;;;;1.33;1.10;;;4.30;99.90;;;;;;1866777;75;25262;-91
2023/11/04 08:02:25;;;;;;;1.30;1.20;;;4.30;99.90;;;;;;1864237;76;25273;-89
2023/11/04 08:08:06;;;;;;;1.10;1.00;;;4.40;99.90;;;;;;1945908;72;26888;-91
2023/11/04 08:10:55;;;;;;;1.20;1.10;;;4.40;99.90;;;;;;1961732;72;25955;-91
2023/11/04 08:16:39;;;;;;;1.33;1.07;;;4.40;99.90;;;;;;1969565;72;26924;-89
2023/11/04 08:19:27;;;;;;;2.20;1.10;;;4.40;99.90;;;;;;1934501;73;25221;-91
2023/11/04 08:22:16;;;;;;;1.77;1.20;;;4.40;99.90;;;;;;1934865;73;25245;-91
2023/11/04 08:25:06;;;;;;;1.53;1.00;;;4.40;99.90;;;;;;1942059;73;25312;-89
2023/11/04 08:27:55;;;;;;;0.90;0.90;;;4.50;99.90;;;;;;1932855;73;25847;-91
2023/11/04 08:30:44;;;;;;;0.93;0.93;;;4.60;99.90;;;;;;1910128;73;25229;-89
2023/11/04 08:33:32;;;;;;;0.80;0.80;;;4.50;99.90;;;;;;1937263;73;25261;-91
2023/11/04 08:36:20;;;;;;;0.87;0.87;;;4.40;99.90;;;;;;1905072;73;25299;-91
2023/11/04 08:39:09;;;;;;;1.43;1.07;;;4.40;99.90;;;;;;1931980;72;25221;-91
2023/11/04 08:41:59;;;;;;;0.57;0.57;;;4.40;99.90;;;;;;1925522;73;25274;-91
2023/11/04 08:44:48;;;;;;;1.83;0.83;;;4.30;99.90;;;;;;1901222;73;25182;-91
2023/11/04 08:50:52;;;;;;;0.87;0.87;;;4.40;99.90;;;;;;1975396;71;27051;-89
2023/11/04 08:53:41;;;;;;;1.07;1.00;;;4.50;99.90;;;;;;2014554;70;25180;-90
2023/11/04 08:56:30;;;;;;;2.77;1.10;;;4.60;99.90;;;;;;2009826;70;25260;-91
2023/11/04 08:59:18;;;;;;;0.83;0.83;;;4.60;99.90;;;;;;2037157;69;25325;-89
2023/11/04 09:02:06;;;;;;;0.90;0.90;;;4.60;99.90;;;;;;2030381;70;25253;-90
2023/11/04 09:04:55;;;;;;;1.03;0.90;;;4.60;99.90;;;;;;1999443;70;25226;-91
2023/11/04 09:07:43;;;;;;;1.00;1.00;;;4.60;99.90;;;;;;2001442;70;25532;-91
2023/11/04 09:10:32;;;;;;;1.17;1.10;;;4.50;99.90;;;;;;2010259;70;25260;-90
2023/11/04 09:13:22;;;;;;;1.30;1.20;;;4.50;99.90;;;;;;2032406;69;25204;-91
2023/11/04 09:19:04;;;;;;;1.03;1.00;;;4.60;99.90;;;;;;1946521;72;27063;-89
2023/11/04 09:21:53;;;;;;;2.47;1.13;;;4.70;99.90;;;;;;1918899;73;25375;-89
2023/11/04 09:24:41;;;;;;;1.40;1.20;;;4.70;99.90;;;;;;1926490;73;25295;-90
2023/11/04 09:27:30;;;;;;;1.43;1.30;;;4.80;99.90;;;;;;1922068;73;25209;-89
2023/11/04 09:30:19;;;;;;;1.80;1.10;;;4.70;99.90;;;;;;1916593;73;25741;-91
2023/11/04 09:33:08;;;;;;;2.60;1.30;;;4.60;99.90;;;;;;1856294;76;25219;-89
2023/11/04 09:35:57;;;;;;;1.80;0.90;;;4.70;99.90;;;;;;1921530;73;25263;-91
2023/11/04 09:38:46;;;;;;;1.27;1.00;;;4.60;99.90;;;;;;1916681;73;25309;-91
2023/11/04 09:44:16;;;;;;;1.20;1.00;;;4.80;99.90;;;;;;1923926;72;27062;-91
2023/11/04 09:47:05;;;;;;;1.37;1.13;;;4.80;99.90;;;;;;1892501;75;25304;-91
2023/11/04 09:49:54;;;;;;;1.33;1.20;;;5.00;99.90;;;;;;1891566;73;25201;-91
2023/11/04 09:52:46;;;;;;;2.77;1.20;;;4.90;99.90;;;;;;1892989;75;25659;-91
2023/11/04 09:55:35;;;;;;;1.17;1.00;;;4.80;99.90;;;;;;1890612;75;25660;-91
2023/11/04 09:58:24;;;;;;;3.33;0.90;;;4.70;99.90;;;;;;1889954;75;25338;-91
2023/11/04 10:01:13;;;;;;;1.73;1.00;;;4.70;99.90;;;;;;1885379;75;25273;-91
2023/11/04 10:04:02;;;;;;;1.03;1.00;;;4.80;99.90;;;;;;1899522;73;25630;-90
2023/11/04 10:06:50;;;;;;;6.67;2.63;;;4.70;99.90;;;;;;1894360;75;25204;-91
2023/11/04 10:09:38;;;;;;;1.00;1.00;;;4.80;99.90;;;;;;1887552;73;25376;-91
2023/11/04 10:12:27;;;;;;;1.20;1.10;;;4.80;99.90;;;;;;1902733;73;25237;-91
2023/11/04 10:15:17;;;;;;;1.60;1.00;;;4.80;99.90;;;;;;1899385;75;25302;-91
2023/11/04 10:18:06;;;;;;;0.93;0.90;;;4.90;99.90;;;;;;1895747;73;25757;-91
2023/11/04 10:20:55;;;;;;;2.30;1.20;;;4.90;99.90;;;;;;1889790;75;25250;-91
2023/11/04 10:23:45;;;;;;;1.50;1.10;;;4.90;99.90;;;;;;1899850;73;25213;-90
2023/11/04 10:26:34;;;;;;;0.93;0.93;;;5.00;99.90;;;;;;1889528;73;25802;-90
2023/11/04 10:29:22;;;;;;;0.70;0.70;;;4.90;99.90;;;;;;1886093;75;25645;-90
2023/11/04 10:32:12;;;;;;;1.80;0.80;;;4.90;99.90;;;;;;1890626;75;25271;-91
2023/11/04 10:37:55;;;;;;;1.40;1.03;;;4.90;99.90;;;;;;1946365;72;26886;-89
2023/11/04 10:40:43;;;;;;;0.73;0.70;;;4.90;99.90;;;;;;1928066;73;25820;-89
2023/11/04 10:43:36;;;;;;;1.03;0.70;;;5.00;99.90;;;;;;1933594;73;25225;-89
2023/11/04 10:46:30;;;;;;;0.73;0.73;;;5.00;99.90;;;;;;1929722;73;25232;-91
2023/11/04 11:08:43;;;;;;;0.97;0.70;;;5.40;99.90;;;;;;1933747;72;27004;-89
2023/11/04 11:14:16;;;;;;;0.83;0.83;;;5.20;99.90;;;;;;1960453;71;27369;-89
2023/11/04 11:17:05;;;;;;;0.90;0.70;;;5.20;99.90;;;;;;1944677;73;25676;-89
2023/11/04 11:19:53;;;;;;;0.70;0.70;;;5.20;99.90;;;;;;1920939;73;25307;-89
2023/11/04 11:25:33;;;;;;;0.90;0.90;;;5.10;99.90;;;;;;1940216;72;27503;-91
2023/11/04 11:28:22;;;;;;;0.60;0.60;;;5.00;99.90;;;;;;1920309;73;25229;-91
2023/11/04 11:31:12;;;;;;;0.70;0.70;;;5.10;99.90;;;;;;1934368;73;25245;-91
2023/11/04 11:34:09;;;;;;;0.70;0.70;;;5.10;99.90;;;;;;1925097;72;25204;-91
2023/11/04 11:37:00;;;;;;;0.60;0.60;;;5.10;99.90;;;;;;1940356;73;25167;-92
2023/11/04 11:39:50;;;;;;;0.63;0.60;;;5.20;99.90;;;;;;1932930;73;25238;-92
2023/11/04 11:42:39;;;;;;;1.10;0.77;;;5.30;99.90;;;;;;1920595;73;25288;-90
2023/11/04 11:45:28;;;;;;;3.83;0.80;;;5.20;99.90;;;;;;1905995;73;25692;-89
2023/11/04 12:05:44;;;;;;;2.53;1.10;;;5.20;99.90;;;;;;1947931;72;26901;-91
2023/11/04 12:08:32;;;;;;;0.70;0.70;;;5.20;99.90;;;;;;1916998;73;25242;-89
2023/11/04 12:11:21;;;;;;;0.70;0.70;;;5.20;99.90;;;;;;1922698;73;25253;-90
2023/11/04 12:14:11;;;;;;;0.63;0.63;;;5.20;99.90;;;;;;1928541;73;25216;-90
2023/11/04 12:16:59;;;;;;;0.70;0.63;;;5.20;99.90;;;;;;1920098;73;25211;-88
2023/11/04 12:19:48;;;;;;;0.70;0.70;;;5.30;99.90;;;;;;1919797;72;25304;-89
2023/11/04 12:22:37;;;;;;;1.17;0.67;;;5.20;99.90;;;;;;1919454;73;25658;-88
2023/11/04 12:25:26;;;;;;;0.80;0.80;;;5.20;99.90;;;;;;1936749;72;25246;-88
2023/11/04 12:28:15;;;;;;;2.50;0.90;;;5.10;99.90;;;;;;1932317;73;25280;-88
2023/11/04 12:31:05;;;;;;;0.90;0.90;;;5.10;99.90;;;;;;1923550;73;25257;-88
2023/11/04 12:33:55;;;;;;;1.00;0.90;;;5.10;99.90;;;;;;1940994;72;25721;-88
2023/11/04 12:39:29;;;;;;;0.80;0.80;;;5.30;99.90;;;;;;1979254;71;27606;-88
2023/11/04 12:42:19;;;;;;;1.13;0.93;;;5.10;99.90;;;;;;1911108;74;25251;-88
2023/11/04 12:48:22;;;;;;;2.77;0.90;;;5.10;99.90;;;;;;1981214;71;27013;-88
2023/11/04 12:51:11;;;;;;;0.80;0.80;;;5.20;99.90;;;;;;2053059;69;25135;-88
2023/11/04 12:54:00;;;;;;;0.80;0.80;;;5.40;99.90;;;;;;2032175;69;25177;-88
2023/11/04 12:56:49;;;;;;;0.60;0.60;;;5.30;99.90;;;;;;2049788;69;25197;-90
2023/11/04 12:59:37;;;;;;;1.73;1.00;;;5.30;99.90;;;;;;2041434;69;25276;-88
2023/11/04 13:02:26;;;;;;;0.80;0.80;;;5.40;99.90;;;;;;2044364;69;25144;-88
2023/11/04 13:05:15;;;;;;;1.00;0.90;;;5.50;99.90;;;;;;2046591;69;25188;-88
2023/11/04 13:08:04;;;;;;;0.80;0.80;;;5.50;99.90;;;;;;2034652;70;25223;-88
2023/11/04 13:10:55;;;;;;;1.00;0.90;;;5.70;99.90;;;;;;2058239;69;25707;-89
2023/11/04 13:13:43;;;;;;;2.90;0.80;;;5.70;99.90;;;;;;2056661;69;25239;-89
2023/11/04 13:16:32;;;;;;;0.80;0.80;;;5.70;99.90;;;;;;2057034;69;25136;-89
2023/11/04 13:19:21;;;;;;;2.37;0.80;;;5.60;99.90;;;;;;2053540;69;25269;-89
2023/11/04 13:22:10;;;;;;;0.80;0.80;;;5.50;99.90;;;;;;2038007;69;26406;-89
2023/11/04 13:24:58;;;;;;;0.80;0.80;;;5.50;99.90;;;;;;2040103;69;25298;-89
2023/11/04 13:27:48;;;;;;;0.90;0.90;;;5.40;99.90;;;;;;2046837;68;25187;-89
2023/11/04 13:30:37;;;;;;;1.10;1.10;;;5.30;99.90;;;;;;2055133;69;25188;-89
2023/11/04 13:33:25;;;;;;;1.23;1.13;;;5.30;99.90;;;;;;2047040;69;25288;-89
2023/11/04 13:39:08;;;;;;;1.20;1.10;;;5.40;99.90;;;;;;1959636;72;26992;-90
2023/11/04 13:41:57;;;;;;;1.30;1.20;;;5.30;99.90;;;;;;1935815;72;25262;-91
2023/11/04 13:47:35;;;;;;;1.40;1.17;;;5.40;99.90;;;;;;1942896;72;27179;-90
2023/11/04 13:50:22;;;;;;;1.27;1.17;;;5.20;99.90;;;;;;1928758;73;25264;-90
2023/11/04 13:53:11;;;;;;;1.80;1.17;;;5.30;99.90;;;;;;1916077;73;25159;-90
2023/11/04 13:55:59;;;;;;;1.83;1.20;;;5.30;99.90;;;;;;1936385;73;25262;-90
2023/11/04 13:58:48;;;;;;;1.00;1.00;;;5.30;99.90;;;;;;1917807;73;25205;-90
2023/11/04 14:01:37;;;;;;;3.20;1.53;;;5.20;99.90;;;;;;1926775;73;25828;-91
2023/11/04 14:04:25;;;;;;;1.27;1.17;;;5.30;99.90;;;;;;1934149;73;25208;-91
2023/11/04 14:07:14;;;;;;;1.40;1.20;;;5.30;99.90;;;;;;1922419;73;25220;-90
2023/11/04 14:10:03;;;;;;;1.47;1.30;;;5.20;99.90;;;;;;1918963;73;25189;-90
2023/11/04 14:12:52;;;;;;;4.17;2.40;;;5.20;99.90;;;;;;1934544;73;25252;-90
2023/11/04 14:15:41;;;;;;;6.17;3.13;;;5.30;99.90;;;;;;1943469;73;25225;-90
2023/11/04 14:21:11;;;;;;;6.37;3.37;;;5.20;99.90;;;;;;1903199;74;27171;-87
2023/11/04 14:23:59;;;;;;;11.90;5.37;;;5.20;99.90;;;;;;1824080;76;25270;-89
2023/11/04 14:26:49;;;;;;;9.60;4.83;;;5.20;99.90;;;;;;1852673;76;25229;-89
2023/11/04 14:29:37;;;;;;;2.83;1.53;;;5.30;99.90;;;;;;1843026;77;25593;-87
2023/11/04 14:32:26;;;;;;;1.23;1.13;;;5.20;99.90;;;;;;1845450;76;25263;-87
2023/11/04 14:35:15;;;;;;;2.10;1.10;;;5.10;99.90;;;;;;1845667;76;25250;-87
2023/11/04 14:38:04;;;;;;;2.37;1.00;;;5.10;99.90;;;;;;1849249;77;25300;-89
2023/11/04 14:40:52;;;;;;;1.30;1.07;;;5.00;99.90;;;;;;1781733;79;25220;-89
2023/11/04 14:43:41;;;;;;;1.17;1.07;;;5.00;99.90;;;;;;1795853;79;25337;-89
2023/11/04 14:46:30;;;;;;;1.40;1.30;;;5.00;99.90;;;;;;1816183;77;25327;-89
2023/11/04 14:49:18;;;;;;;1.73;1.47;;;5.00;99.90;;;;;;1808019;78;25263;-89
2023/11/04 14:52:07;;;;;;;1.37;1.27;;;5.10;99.90;;;;;;1809021;79;25679;-87
2023/11/04 14:54:55;;;;;;;1.73;1.27;;;5.10;99.90;;;;;;1826291;78;25736;-87
2023/11/04 15:00:30;;;;;;;5.40;1.40;;;5.10;99.90;;;;;;1940449;72;27045;-87
2023/11/04 15:03:21;;;;;;;1.63;1.37;;;5.10;99.90;;;;;;1921491;73;25249;-87
2023/11/04 15:06:10;;;;;;;30.37;10.07;;;5.10;99.90;;;;;;1916113;75;25748;-89
2023/11/04 15:09:02;;;;;;;9.73;4.23;;;5.10;99.90;;;;;;1936801;73;25265;-89
2023/11/04 15:11:51;;;;;;;13.83;3.83;;;5.10;99.90;;;;;;1924073;73;25217;-89
2023/11/04 15:14:41;;;;;;;28.93;8.77;;;5.10;99.90;;;;;;1916781;73;25647;-89
2023/11/04 15:17:30;;;;;;;12.43;3.70;;;5.10;99.90;;;;;;1924641;73;25294;-89
2023/11/04 15:20:19;;;;;;;8.53;3.30;;;5.20;99.90;;;;;;1923800;73;25220;-89
2023/11/04 15:23:07;;;;;;;9.47;3.57;;;5.10;99.90;;;;;;1930692;73;25253;-89
2023/11/04 15:25:57;;;;;;;68.77;15.70;;;5.10;99.90;;;;;;1921308;73;25198;-89
2023/11/04 15:28:46;;;;;;;24.80;7.50;;;5.10;99.90;;;;;;1917711;73;25219;-89
2023/11/04 15:31:35;;;;;;;21.07;7.07;;;5.00;99.90;;;;;;1921958;73;25192;-89
2023/11/04 15:34:25;;;;;;;16.17;7.37;;;5.00;99.90;;;;;;1916952;73;25322;-89
2023/11/04 15:37:14;;;;;;;6.90;3.50;;;4.90;99.90;;;;;;1928634;73;25265;-89
2023/11/04 15:40:03;;;;;;;2.83;1.80;;;4.90;99.90;;;;;;1926963;73;25766;-88
2023/11/04 15:42:51;;;;;;;1.87;1.37;;;4.80;99.90;;;;;;1924189;74;25341;-89
2023/11/04 15:49:58;;;;;;;2.27;1.43;;;4.70;99.90;;;;;;1953780;72;29269;-87
2023/11/04 15:52:48;;;;;;;2.03;1.60;;;4.70;99.90;;;;;;1962904;72;25698;-89
2023/11/04 15:55:37;;;;;;;1.50;1.40;;;4.70;99.90;;;;;;2015471;70;25678;-89
2023/11/04 16:04:21;;;;;;;12.03;5.90;;;4.70;99.90;;;;;;1997696;71;27046;-89
2023/11/04 16:07:11;;;;;;;8.17;4.50;;;4.80;99.90;;;;;;1971969;72;25747;-90
2023/11/04 16:10:00;;;;;;;10.77;4.77;;;4.80;99.90;;;;;;1969778;72;25219;-89
2023/11/04 16:15:34;;;;;;;6.77;3.30;;;4.70;99.90;;;;;;1937819;72;27088;-87
2023/11/04 16:21:39;;;;;;;2.03;1.40;;;4.80;99.90;;;;;;1984372;71;26320;-87
2023/11/04 16:24:28;;;;;;;1.83;1.60;;;4.70;99.90;;;;;;1955524;72;25630;-90
2023/11/04 16:42:19;;;;;;;2.63;1.70;;;4.80;99.90;;;;;;1983174;71;26317;-87
2023/11/04 16:45:10;;;;;;;2.83;1.80;;;4.80;99.90;;;;;;1961598;72;25230;-88
2023/11/04 16:47:59;;;;;;;2.17;1.70;;;4.70;99.90;;;;;;2033775;69;25236;-88
2023/11/04 16:50:47;;;;;;;2.90;1.80;;;4.70;99.90;;;;;;1995963;71;25906;-88
2023/11/04 16:53:36;;;;;;;2.60;1.67;;;4.70;99.90;;;;;;2059772;69;26043;-88
2023/11/04 16:56:25;;;;;;;2.47;1.87;;;4.70;99.90;;;;;;2068898;69;25204;-89
2023/11/04 17:02:12;;;;;;;1.87;1.67;;;4.70;99.90;;;;;;1955752;72;29852;-88
2023/11/04 17:05:01;;;;;;;3.50;1.70;;;4.80;99.90;;;;;;1930518;74;25224;-88
2023/11/04 17:35:16;;;;;;;1.53;1.43;;;4.70;99.90;;;;;;1932528;73;26745;-88
2023/11/04 17:40:45;;;;;;;1.90;1.70;;;4.70;99.90;;;;;;1907470;73;27470;-86
2023/11/04 17:43:34;;;;;;;1.83;1.70;;;4.70;99.90;;;;;;1893742;74;25717;-90
2023/11/04 17:46:22;;;;;;;4.83;3.23;;;4.70;99.90;;;;;;1838204;76;25259;-90
2023/11/04 18:02:20;;;;;;;4.07;1.80;;;4.80;99.90;;;;;;1841277;77;27011;-88
2023/11/04 18:07:54;;;;;;;4.00;1.87;;;4.80;99.90;;;;;;1945654;72;27049;-88
2023/11/04 18:13:35;;;;;;;3.33;2.30;;;4.90;99.90;;;;;;1948364;72;27085;-88
2023/11/04 18:16:23;;;;;;;2.97;2.20;;;4.80;99.90;;;;;;1939252;74;25590;-90
2023/11/04 18:33:50;;;;;;;30.17;15.93;;;5.00;99.90;;;;;;1901830;75;27733;-89
2023/11/04 18:39:27;;;;;;;7.40;5.53;;;5.00;99.90;;;;;;1940878;72;26569;-87
2023/11/04 18:42:15;;;;;;;5.37;3.73;;;4.90;99.90;;;;;;1917884;73;25308;-90
2023/11/04 18:45:05;;;;;;;12.67;9.10;;;4.90;99.90;;;;;;1905700;73;25687;-90
2023/11/04 18:47:54;;;;;;;5.33;4.30;;;4.90;99.90;;;;;;1899082;75;25357;-90
2023/11/04 18:50:42;;;;;;;7.37;4.80;;;4.80;99.90;;;;;;1893549;74;25176;-90
2023/11/04 18:53:31;;;;;;;7.07;4.60;;;4.90;99.90;;;;;;1897383;73;25632;-90
2023/11/04 18:56:20;;;;;;;6.23;4.00;;;4.90;99.90;;;;;;1900838;75;25715;-90
2023/11/04 18:59:09;;;;;;;7.73;3.37;;;4.90;99.90;;;;;;1901284;74;25251;-90
2023/11/04 19:01:57;;;;;;;7.67;3.57;;;4.90;99.90;;;;;;1896317;75;25183;-90
2023/11/04 19:09:00;;;;;;;6.23;4.43;;;5.10;99.90;;;;;;1994328;70;27794;-88
2023/11/04 19:11:49;;;;;;;8.37;4.97;;;5.10;99.90;;;;;;1943656;73;25227;-89
2023/11/04 19:14:38;;;;;;;15.27;6.97;;;5.10;99.90;;;;;;1960298;73;25159;-89
2023/11/04 19:18:04;;;;;;;11.70;6.27;;;5.10;99.90;;;;;;1958531;72;25239;-89
2023/11/04 19:20:49;;;;;;;12.83;7.00;;;5.10;99.90;;;;;;1958015;72;25310;-89
2023/11/04 19:23:38;;;;;;;8.67;5.07;;;5.10;99.90;;;;;;1961122;72;25227;-89
2023/11/04 19:40:05;;;;;;;8.20;5.63;;;5.30;99.90;;;;;;1988297;72;27396;-89
2023/11/04 19:45:39;;;;;;;7.10;4.50;;;5.20;99.90;;;;;;1943602;72;27085;-88
2023/11/04 19:48:29;;;;;;;8.70;5.20;;;5.10;99.90;;;;;;1892702;74;25301;-90
2023/11/04 19:51:18;;;;;;;11.53;6.97;;;5.00;99.90;;;;;;1898589;73;25219;-89
2023/11/04 19:54:06;;;;;;;10.37;6.40;;;5.00;99.90;;;;;;1886016;75;25696;-89
2023/11/04 19:56:55;;;;;;;10.87;6.50;;;4.90;99.90;;;;;;1911655;74;25305;-90
2023/11/04 19:59:45;;;;;;;13.77;7.03;;;4.90;99.90;;;;;;1910149;74;25709;-89